Time;durP1;ratioP1;P1;durP2;ratioP2;P2;SDS_P1;SDS_P2;PMS_P1;PMS_P2;Temp;Humidity;BMP_temperature;BMP_pressure;BME280_temperature;BME280_humidity;BME280_pressure;Samples;Min_cycle;Max_cycle;Signal;HPM_P1;HPM_P2
2023/02/01 00:01:57;;;;;;;13.07;2.53;;;4.60;1.00;;;;;;5006992;28;20172;-78
2023/02/01 00:04:22;;;;;;;11.53;2.37;;;4.50;1.00;;;;;;5006435;28;20677;-77
2023/02/01 00:06:48;;;;;;;11.07;2.63;;;4.50;1.00;;;;;;5007086;28;20227;-77
2023/02/01 00:09:14;;;;;;;13.50;2.57;;;4.60;1.00;;;;;;5005632;28;20203;-77
2023/02/01 00:11:40;;;;;;;13.53;3.57;;;4.50;1.00;;;;;;5005864;28;20199;-78
2023/02/01 00:14:05;;;;;;;14.57;2.40;;;4.50;1.00;;;;;;5006174;28;20748;-77
2023/02/01 00:16:32;;;;;;;10.73;2.70;;;4.50;1.00;;;;;;5007611;28;20203;-78
2023/02/01 00:19:23;;;;;;;11.47;2.37;;;4.60;1.00;;;;;;5007190;28;20211;-78
2023/02/01 00:21:49;;;;;;;8.27;1.90;;;4.60;1.00;;;;;;5006320;28;20195;-77
2023/02/01 00:24:14;;;;;;;10.57;2.73;;;4.60;1.00;;;;;;5007426;28;20769;-77
2023/02/01 00:26:43;;;;;;;13.88;3.47;;;4.60;1.00;;;;;;5006132;28;20808;-78
2023/02/01 00:29:26;;;;;;;10.37;2.70;;;4.50;1.00;;;;;;5005808;28;20179;-77
2023/02/01 00:31:52;;;;;;;11.50;3.30;;;4.50;1.00;;;;;;5007928;28;20198;-78
2023/02/01 00:34:18;;;;;;;15.20;2.57;;;4.50;1.00;;;;;;5007638;28;20191;-78
2023/02/01 00:36:44;;;;;;;15.30;3.65;;;4.50;1.00;;;;;;5007606;28;20417;-77
2023/02/01 00:39:11;;;;;;;15.20;2.70;;;4.50;1.00;;;;;;5010372;28;20203;-78
2023/02/01 00:41:37;;;;;;;10.50;2.60;;;4.50;1.00;;;;;;5010720;28;20205;-78
2023/02/01 00:44:03;;;;;;;8.20;2.43;;;4.50;1.00;;;;;;5010129;28;20255;-78
2023/02/01 00:46:28;;;;;;;14.53;3.33;;;4.40;1.00;;;;;;5008987;28;20651;-78
2023/02/01 00:48:54;;;;;;;10.60;2.50;;;4.40;1.00;;;;;;5010999;28;20192;-78
2023/02/01 00:51:23;;;;;;;13.23;3.17;;;4.40;1.00;;;;;;5010885;28;20195;-78
2023/02/01 00:53:49;;;;;;;7.17;2.50;;;4.40;1.00;;;;;;5008454;28;20271;-78
2023/02/01 00:56:15;;;;;;;13.67;2.80;;;4.40;1.00;;;;;;5009636;28;20211;-78
2023/02/01 00:58:41;;;;;;;15.10;2.80;;;4.60;1.00;;;;;;5009703;28;20208;-77
2023/02/01 01:01:33;;;;;;;11.50;2.83;;;4.40;1.00;;;;;;5009442;28;20175;-78
2023/02/01 01:03:59;;;;;;;10.37;2.57;;;4.40;1.00;;;;;;5008169;28;20528;-78
2023/02/01 01:06:28;;;;;;;17.27;3.00;;;4.40;1.00;;;;;;5009334;28;20208;-78
2023/02/01 01:08:55;;;;;;;11.63;2.47;;;4.40;1.00;;;;;;5011850;28;20188;-77
2023/02/01 01:11:24;;;;;;;14.00;3.08;;;4.40;1.00;;;;;;5007405;28;20947;-78
2023/02/01 01:13:51;;;;;;;14.83;2.90;;;4.40;1.00;;;;;;5008357;28;20183;-77
2023/02/01 01:16:18;;;;;;;15.47;2.97;;;4.40;1.00;;;;;;5009823;28;20963;-77
2023/02/01 01:18:44;;;;;;;10.67;2.80;;;4.40;1.00;;;;;;5008940;28;20219;-77
2023/02/01 01:21:12;;;;;;;12.27;2.87;;;4.50;1.00;;;;;;5008144;28;20176;-77
2023/02/01 01:23:37;;;;;;;14.97;3.60;;;4.40;1.00;;;;;;5009017;28;20661;-77
2023/02/01 01:26:08;;;;;;;13.80;2.93;;;4.50;1.00;;;;;;5008982;28;20199;-77
2023/02/01 01:28:34;;;;;;;14.20;3.00;;;4.40;1.00;;;;;;5009500;28;20187;-78
2023/02/01 01:30:59;;;;;;;12.40;3.00;;;4.40;1.00;;;;;;5009497;28;20187;-77
2023/02/01 01:33:25;;;;;;;16.85;4.35;;;4.40;1.00;;;;;;5006332;28;20414;-77
2023/02/01 01:35:50;;;;;;;14.10;3.37;;;4.40;1.00;;;;;;5009028;28;20210;-77
2023/02/01 01:38:16;;;;;;;16.67;4.70;;;4.50;1.00;;;;;;5009210;28;20286;-77
2023/02/01 01:40:45;;;;;;;12.03;3.50;;;4.50;1.00;;;;;;5009099;28;20188;-77
2023/02/01 01:43:16;;;;;;;14.33;2.90;;;4.50;1.00;;;;;;5024773;28;20627;-78
2023/02/01 01:45:42;;;;;;;15.10;4.20;;;4.30;99.90;;;;;;5005673;28;20415;-78
2023/02/01 01:48:14;;;;;;;11.80;3.50;;;4.50;1.00;;;;;;5009020;28;20678;-77
2023/02/01 01:50:48;;;;;;;20.03;4.87;;;4.50;1.00;;;;;;5008552;28;20399;-77
2023/02/01 01:53:18;;;;;;;15.13;3.93;;;4.50;1.00;;;;;;5009995;28;20618;-78
2023/02/01 01:55:47;;;;;;;14.43;4.45;;;4.40;1.00;;;;;;5010357;28;20768;-78
2023/02/01 01:58:17;;;;;;;16.80;3.80;;;4.50;1.00;;;;;;5009577;28;21068;-78
2023/02/01 02:00:44;;;;;;;16.33;3.13;;;4.40;1.00;;;;;;5010211;28;20646;-77
2023/02/01 02:03:45;;;;;;;16.13;3.30;;;4.40;1.00;;;;;;5011374;28;20183;-78
2023/02/01 02:06:31;;;;;;;19.30;3.93;;;4.40;1.00;;;;;;4976380;28;20713;-78
2023/02/01 02:08:56;;;;;;;13.77;3.27;;;4.40;1.00;;;;;;5006716;28;20234;-77
2023/02/01 02:11:22;;;;;;;14.63;3.20;;;4.40;1.00;;;;;;5008970;28;20206;-78
2023/02/01 02:13:51;;;;;;;14.97;4.20;;;4.40;1.00;;;;;;5008674;28;20187;-77
2023/02/01 02:16:54;;;;;;;15.30;3.87;;;4.40;1.00;;;;;;5008699;28;20207;-77
2023/02/01 02:19:35;;;;;;;13.00;3.67;;;4.40;1.00;;;;;;5008538;28;20203;-77
2023/02/01 02:22:22;;;;;;;16.90;3.73;;;4.40;1.00;;;;;;5009185;28;20175;-77
2023/02/01 02:25:17;;;;;;;16.67;3.47;;;4.40;1.00;;;;;;5008042;28;20172;-77
2023/02/01 02:27:48;;;;;;;14.93;3.23;;;4.40;1.00;;;;;;5008315;28;20693;-77
2023/02/01 02:30:35;;;;;;;12.67;3.70;;;4.40;1.00;;;;;;5008438;28;20188;-77
2023/02/01 02:33:52;;;;;;;14.97;3.60;;;4.40;1.00;;;;;;5008453;28;20176;-77
2023/02/01 02:36:33;;;;;;;14.70;4.40;;;4.40;1.00;;;;;;5005712;28;20203;-77
2023/02/01 02:39:24;;;;;;;18.40;4.30;;;4.50;1.00;;;;;;5007584;28;20543;-78
2023/02/01 02:48:07;;;;;;;18.20;3.87;;;4.50;1.00;;;;;;5008927;28;20214;-77
2023/02/01 03:05:00;;;;;;;13.23;2.97;;;4.30;1.00;;;;;;5008100;28;20350;-77
2023/02/01 03:07:44;;;;;;;12.03;3.47;;;6.20;1.00;;;;;;5007809;28;20949;-77
2023/02/01 03:10:24;;;;;;;14.53;3.83;;;4.20;1.00;;;;;;5008292;28;20183;-76
2023/02/01 03:12:56;;;;;;;17.50;4.20;;;4.30;1.00;;;;;;5008094;28;20977;-76
2023/02/01 03:15:34;;;;;;;13.40;3.30;;;4.30;1.00;;;;;;5007582;28;20553;-77
2023/02/01 03:18:02;;;;;;;12.43;2.60;;;4.30;1.00;;;;;;5007024;28;20183;-76
2023/02/01 03:20:29;;;;;;;13.53;2.87;;;4.30;1.00;;;;;;5008120;28;20187;-77
2023/02/01 03:22:55;;;;;;;13.47;3.23;;;4.30;1.00;;;;;;5007968;28;20241;-77
2023/02/01 03:25:28;;;;;;;14.73;3.43;;;4.30;1.00;;;;;;5007799;28;20179;-76
2023/02/01 03:28:02;;;;;;;12.73;3.63;;;4.30;1.00;;;;;;5008437;28;20188;-77
2023/02/01 03:30:35;;;;;;;18.23;3.43;;;4.40;1.00;;;;;;5006923;28;20182;-77
2023/02/01 03:33:11;;;;;;;12.27;3.30;;;4.40;1.00;;;;;;5008218;28;20804;-77
2023/02/01 03:35:48;;;;;;;14.37;3.43;;;4.40;1.00;;;;;;5007692;28;20266;-77
2023/02/01 03:38:29;;;;;;;13.87;3.33;;;4.40;1.00;;;;;;5007648;28;20199;-77
2023/02/01 03:41:28;;;;;;;18.83;3.70;;;4.40;1.00;;;;;;5008791;28;20626;-77
2023/02/01 03:44:01;;;;;;;12.43;2.93;;;4.40;1.00;;;;;;5005130;28;20195;-77
2023/02/01 03:46:37;;;;;;;18.40;3.23;;;4.50;1.00;;;;;;5007630;28;20199;-77
2023/02/01 03:49:08;;;;;;;12.13;3.53;;;4.50;1.00;;;;;;5007836;28;20206;-77
2023/02/01 03:51:35;;;;;;;17.70;4.13;;;4.50;1.00;;;;;;5007815;28;20250;-77
2023/02/01 03:54:03;;;;;;;16.47;3.77;;;4.50;1.00;;;;;;5008076;28;20184;-77
2023/02/01 03:56:29;;;;;;;9.50;3.00;;;4.40;1.00;;;;;;5007450;28;20298;-77
2023/02/01 03:58:58;;;;;;;13.23;3.43;;;4.40;1.00;;;;;;5008214;28;20621;-77
2023/02/01 04:01:26;;;;;;;13.23;2.90;;;4.40;1.00;;;;;;5008630;28;20275;-77
2023/02/01 04:03:52;;;;;;;13.73;3.67;;;4.40;1.00;;;;;;5023671;28;20712;-77
2023/02/01 04:06:17;;;;;;;10.30;3.00;;;4.50;1.00;;;;;;5008452;28;20282;-77
2023/02/01 04:08:43;;;;;;;14.23;3.10;;;4.50;1.00;;;;;;5006953;28;20199;-77
2023/02/01 04:11:08;;;;;;;11.17;3.40;;;4.50;1.00;;;;;;5006967;28;20238;-77
2023/02/01 04:13:34;;;;;;;12.93;3.87;;;4.50;1.00;;;;;;5006035;28;21222;-76
2023/02/01 04:15:59;;;;;;;10.03;3.10;;;4.60;1.00;;;;;;5005950;28;20230;-77
2023/02/01 04:18:25;;;;;;;16.03;3.87;;;4.60;1.00;;;;;;5006732;28;20203;-76
2023/02/01 04:20:50;;;;;;;15.50;3.70;;;4.60;1.00;;;;;;5006382;28;20180;-77
2023/02/01 04:23:16;;;;;;;16.55;4.72;;;4.50;1.00;;;;;;5005643;28;20436;-76
2023/02/01 04:25:41;;;;;;;12.27;3.63;;;4.50;1.00;;;;;;5006447;28;20204;-76
2023/02/01 04:28:07;;;;;;;10.73;2.93;;;4.50;1.00;;;;;;5006431;28;20557;-77
2023/02/01 04:30:33;;;;;;;14.67;4.00;;;4.50;1.40;;;;;;5005653;28;20609;-77
2023/02/01 04:32:58;;;;;;;14.53;4.20;;;4.60;1.00;;;;;;5006255;28;20598;-76
2023/02/01 04:35:24;;;;;;;12.80;3.43;;;4.50;1.90;;;;;;5004435;28;20211;-77
2023/02/01 04:37:49;;;;;;;15.90;4.13;;;4.50;6.00;;;;;;5006678;28;20179;-76
2023/02/01 04:40:15;;;;;;;13.40;3.50;;;4.50;18.50;;;;;;5005288;28;20230;-77
2023/02/01 04:42:41;;;;;;;16.23;3.60;;;4.50;28.40;;;;;;5009394;28;20175;-77
2023/02/01 04:45:07;;;;;;;13.90;3.87;;;4.40;45.90;;;;;;5010752;28;20180;-78
2023/02/01 04:47:32;;;;;;;10.87;3.40;;;4.30;56.50;;;;;;5011032;28;20204;-77
2023/02/01 04:49:58;;;;;;;14.27;3.40;;;4.30;69.70;;;;;;5010344;28;20184;-77
2023/02/01 04:52:23;;;;;;;14.77;3.97;;;4.30;78.60;;;;;;5009142;28;20191;-76
2023/02/01 04:54:49;;;;;;;14.73;3.90;;;4.20;88.50;;;;;;5009969;28;20184;-77
2023/02/01 04:57:14;;;;;;;14.83;4.63;;;4.20;78.80;;;;;;5009864;28;20699;-77
2023/02/01 04:59:40;;;;;;;20.07;5.07;;;4.30;90.60;;;;;;5008464;28;20295;-77
2023/02/01 05:02:06;;;;;;;15.33;4.70;;;4.20;91.10;;;;;;5010832;28;20617;-77
2023/02/01 05:04:31;;;;;;;12.00;3.57;;;4.20;92.60;;;;;;5009019;28;20645;-77
2023/02/01 05:06:57;;;;;;;14.77;4.57;;;4.20;89.60;;;;;;5008977;28;20245;-77
2023/02/01 05:09:22;;;;;;;14.50;4.03;;;4.20;91.30;;;;;;5010025;28;20538;-76
2023/02/01 05:14:32;;;;;;;9.80;4.00;;;4.20;72.40;;;;;;5009671;28;20195;-77
2023/02/01 05:16:58;;;;;;;14.03;4.10;;;4.20;71.30;;;;;;5009069;28;20211;-76
2023/02/01 05:19:23;;;;;;;13.83;3.77;;;4.20;64.90;;;;;;5007898;28;20207;-76
2023/02/01 05:21:49;;;;;;;15.43;4.33;;;4.30;56.30;;;;;;5009488;28;20663;-76
2023/02/01 05:24:19;;;;;;;13.43;3.70;;;4.30;51.90;;;;;;5007392;28;20671;-77
2023/02/01 05:26:45;;;;;;;16.57;4.73;;;4.30;48.00;;;;;;5007088;28;20204;-77
2023/02/01 05:29:11;;;;;;;11.97;3.90;;;4.30;41.90;;;;;;5007133;28;20187;-76
2023/02/01 05:31:38;;;;;;;15.23;3.80;;;4.30;37.40;;;;;;5009593;28;20188;-77
2023/02/01 05:34:04;;;;;;;14.83;4.00;;;4.30;36.00;;;;;;5009476;28;20192;-77
2023/02/01 05:36:29;;;;;;;13.27;3.57;;;4.30;34.30;;;;;;5008692;28;20588;-77
2023/02/01 05:38:55;;;;;;;15.95;4.93;;;4.40;31.60;;;;;;5008253;28;20434;-77
2023/02/01 05:41:20;;;;;;;12.57;4.07;;;4.40;33.30;;;;;;5009281;28;20191;-76
2023/02/01 05:43:46;;;;;;;13.60;4.03;;;4.40;49.80;;;;;;5009121;28;20227;-77
2023/02/01 05:46:12;;;;;;;11.73;3.80;;;4.30;96.10;;;;;;5007768;28;20270;-77
2023/02/01 05:48:42;;;;;;;12.07;4.33;;;4.30;99.90;;;;;;5009773;28;20195;-76
2023/02/01 05:51:08;;;;;;;12.10;3.90;;;4.20;99.90;;;;;;5009209;28;20191;-77
2023/02/01 05:53:34;;;;;;;14.33;4.13;;;4.20;99.90;;;;;;5006713;28;20330;-77
2023/02/01 05:56:00;;;;;;;15.40;3.93;;;4.20;99.90;;;;;;5008673;28;20298;-77
2023/02/01 05:58:26;;;;;;;15.70;5.00;;;4.10;99.90;;;;;;5006690;28;20435;-77
2023/02/01 06:00:51;;;;;;;13.70;4.43;;;4.20;99.90;;;;;;5007741;28;20188;-77
2023/02/01 06:03:17;;;;;;;12.23;3.87;;;4.20;99.90;;;;;;5007348;28;20250;-77
2023/02/01 06:05:47;;;;;;;15.83;4.13;;;4.20;99.90;;;;;;5005253;28;20231;-77
2023/02/01 06:08:13;;;;;;;10.10;2.90;;;4.20;99.90;;;;;;5006352;28;20274;-77
2023/02/01 06:10:38;;;;;;;9.43;3.53;;;5.00;99.90;;;;;;5006108;28;20179;-77
2023/02/01 06:13:04;;;;;;;9.10;3.20;;;4.20;99.90;;;;;;5007780;28;20195;-77
2023/02/01 06:15:31;;;;;;;14.87;4.60;;;4.10;99.90;;;;;;5008983;28;20187;-77
2023/02/01 06:17:56;;;;;;;13.00;4.37;;;4.10;99.90;;;;;;5009977;28;20551;-78
2023/02/01 06:20:22;;;;;;;14.37;5.57;;;4.00;99.90;;;;;;5009142;28;20184;-78
2023/02/01 06:22:47;;;;;;;20.27;6.03;;;4.00;99.90;;;;;;5010569;28;20262;-77
2023/02/01 06:25:13;;;;;;;10.23;4.77;;;4.00;99.90;;;;;;5009981;28;20187;-78
2023/02/01 06:27:39;;;;;;;16.23;4.70;;;4.00;99.90;;;;;;5008747;28;20735;-77
2023/02/01 06:30:06;;;;;;;12.83;3.83;;;4.10;99.90;;;;;;5007644;28;20654;-77
2023/02/01 06:32:32;;;;;;;10.57;3.60;;;4.10;99.90;;;;;;5004908;28;20563;-76
2023/02/01 06:34:57;;;;;;;12.20;3.33;;;4.20;99.90;;;;;;5005709;28;20186;-77
2023/02/01 06:37:25;;;;;;;10.87;3.90;;;4.10;99.90;;;;;;5007692;28;20196;-78
2023/02/01 06:39:51;;;;;;;12.47;4.00;;;4.20;99.90;;;;;;5006436;28;20286;-78
2023/02/01 06:42:17;;;;;;;10.33;3.03;;;4.30;99.90;;;;;;5007079;28;20608;-77
2023/02/01 06:44:42;;;;;;;12.70;3.70;;;4.30;99.90;;;;;;5005198;28;20260;-76
2023/02/01 06:47:08;;;;;;;12.87;3.67;;;4.30;99.90;;;;;;5007092;28;20673;-78
2023/02/01 06:49:33;;;;;;;10.07;3.33;;;4.30;99.90;;;;;;5008890;28;20200;-77
2023/02/01 06:52:02;;;;;;;11.37;3.27;;;4.30;99.90;;;;;;5007463;28;20218;-77
2023/02/01 06:54:28;;;;;;;14.30;3.60;;;4.40;99.90;;;;;;5007623;28;20187;-77
2023/02/01 06:56:53;;;;;;;12.83;3.63;;;4.40;99.90;;;;;;5006149;28;20621;-77
2023/02/01 06:59:19;;;;;;;13.50;3.73;;;4.30;99.90;;;;;;5007967;28;20239;-77
2023/02/01 07:01:45;;;;;;;10.03;3.33;;;4.30;99.90;;;;;;5007741;28;20237;-78
2023/02/01 07:04:11;;;;;;;10.57;2.87;;;3.50;99.90;;;;;;5008891;28;20556;-77
2023/02/01 07:06:37;;;;;;;9.10;3.33;;;4.40;99.90;;;;;;5007588;28;20265;-78
2023/02/01 07:09:03;;;;;;;10.47;3.63;;;4.40;99.90;;;;;;5009169;28;20186;-78
2023/02/01 07:11:29;;;;;;;10.77;3.10;;;4.40;99.90;;;;;;5007351;28;20199;-78
2023/02/01 07:13:54;;;;;;;8.40;3.20;;;4.40;99.90;;;;;;5003219;28;20295;-77
2023/02/01 07:16:20;;;;;;;11.07;2.67;;;4.30;99.90;;;;;;5004259;28;20592;-78
2023/02/01 07:18:48;;;;;;;8.80;3.13;;;6.40;99.90;;;;;;5006184;28;20459;-77
2023/02/01 07:21:14;;;;;;;11.43;3.10;;;4.20;99.90;;;;;;5007868;28;20196;-77
2023/02/01 07:23:40;;;;;;;9.73;3.00;;;4.20;99.90;;;;;;5006620;28;20207;-78
2023/02/01 07:26:07;;;;;;;10.30;3.10;;;4.20;99.90;;;;;;5007419;28;20208;-78
2023/02/01 07:28:35;;;;;;;8.83;2.80;;;4.20;99.90;;;;;;5007164;28;20202;-77
2023/02/01 07:31:15;;;;;;;10.73;3.43;;;4.20;99.90;;;;;;5009909;28;20196;-77
2023/02/01 07:33:41;;;;;;;8.67;3.47;;;4.20;99.90;;;;;;5008454;28;20563;-78
2023/02/01 07:36:12;;;;;;;11.53;3.57;;;4.20;99.90;;;;;;5008557;28;20213;-77
2023/02/01 07:38:37;;;;;;;8.30;3.50;;;4.20;99.90;;;;;;5008204;28;20295;-78
2023/02/01 07:41:05;;;;;;;7.07;3.00;;;4.20;99.90;;;;;;5009342;28;20262;-77
2023/02/01 07:43:32;;;;;;;11.23;3.20;;;4.20;99.90;;;;;;5010024;28;20271;-78
2023/02/01 07:45:58;;;;;;;7.67;3.47;;;4.20;99.90;;;;;;5008947;28;20199;-78
2023/02/01 07:48:25;;;;;;;9.97;3.20;;;4.30;99.90;;;;;;5009393;28;20191;-78
2023/02/01 07:50:58;;;;;;;10.10;3.90;;;4.20;99.90;;;;;;5009467;28;20258;-79
2023/02/01 07:53:24;;;;;;;10.10;3.23;;;4.30;99.90;;;;;;5007768;28;20214;-78
2023/02/01 07:55:49;;;;;;;8.17;3.67;;;4.30;99.90;;;;;;5008168;28;20247;-77
2023/02/01 07:58:15;;;;;;;9.87;3.20;;;4.30;99.90;;;;;;5008968;28;20207;-77
2023/02/01 08:03:24;;;;;;;10.63;3.17;;;4.40;99.90;;;;;;5007718;28;20226;-78
2023/02/01 08:05:55;;;;;;;10.00;3.37;;;4.40;99.90;;;;;;5008440;28;20227;-77
2023/02/01 08:08:21;;;;;;;8.40;3.40;;;4.40;99.90;;;;;;5007808;28;20283;-78
2023/02/01 08:10:47;;;;;;;8.33;3.60;;;4.50;99.90;;;;;;5006171;28;20202;-82
2023/02/01 08:13:12;;;;;;;15.33;3.40;;;4.50;99.90;;;;;;5007154;28;20175;-78
2023/02/01 08:15:38;;;;;;;9.23;3.90;;;4.50;99.90;;;;;;5006555;28;20241;-77
2023/02/01 08:18:04;;;;;;;11.37;3.50;;;4.50;99.90;;;;;;5012931;28;20198;-78
2023/02/01 08:20:30;;;;;;;8.50;2.97;;;4.50;99.90;;;;;;5013459;28;20179;-77
2023/02/01 08:22:55;;;;;;;13.53;3.33;;;4.50;99.90;;;;;;5013028;28;20190;-78
2023/02/01 08:25:21;;;;;;;10.33;3.47;;;4.50;99.90;;;;;;5013483;28;20234;-78
2023/02/01 08:27:47;;;;;;;8.63;2.97;;;4.40;99.90;;;;;;5012605;28;20195;-79
2023/02/01 08:30:13;;;;;;;12.93;3.30;;;4.40;99.90;;;;;;5016435;28;20217;-78
2023/02/01 08:32:38;;;;;;;9.63;2.93;;;4.30;99.90;;;;;;5014364;28;20183;-78
2023/02/01 08:35:05;;;;;;;12.53;3.60;;;4.40;99.90;;;;;;5015449;28;20840;-76
2023/02/01 08:37:31;;;;;;;8.33;3.07;;;4.40;99.90;;;;;;5018398;28;20207;-80
2023/02/01 08:39:56;;;;;;;10.20;2.93;;;4.40;99.90;;;;;;5019028;28;20584;-79
2023/02/01 08:45:10;;;;;;;9.97;3.00;;;4.50;99.90;;;;;;5014961;28;20896;-78
2023/02/01 08:47:35;;;;;;;12.13;3.03;;;4.40;99.90;;;;;;5014515;28;20203;-77
2023/02/01 08:50:01;;;;;;;12.67;3.07;;;4.40;99.90;;;;;;5014382;28;20681;-77
2023/02/01 08:52:26;;;;;;;9.07;2.90;;;4.50;99.90;;;;;;5011999;28;20180;-77
2023/02/01 08:54:52;;;;;;;11.87;2.83;;;4.50;99.90;;;;;;5013812;28;20207;-77
2023/02/01 08:57:17;;;;;;;9.90;2.83;;;4.50;99.90;;;;;;5014277;28;20226;-77
2023/02/01 08:59:47;;;;;;;12.07;3.67;;;4.60;99.90;;;;;;5013762;28;20211;-78
2023/02/01 09:02:14;;;;;;;13.03;4.87;;;4.60;99.90;;;;;;5009964;28;20192;-77
2023/02/01 09:04:41;;;;;;;13.33;3.33;;;4.70;99.90;;;;;;5010893;28;20199;-77
2023/02/01 09:07:07;;;;;;;12.30;3.57;;;4.60;99.90;;;;;;5010863;28;20214;-79
2023/02/01 09:09:33;;;;;;;14.13;3.57;;;4.70;99.90;;;;;;5011790;28;20191;-78
2023/02/01 09:11:59;;;;;;;7.43;2.73;;;4.80;99.90;;;;;;5010713;28;20191;-78
2023/02/01 09:14:24;;;;;;;9.43;2.80;;;4.90;99.90;;;;;;5011094;28;20661;-77
2023/02/01 09:16:50;;;;;;;17.23;4.27;;;4.80;99.90;;;;;;5010670;28;20207;-77
2023/02/01 09:19:15;;;;;;;10.13;3.03;;;4.80;99.90;;;;;;5011213;28;20261;-77
2023/02/01 09:21:41;;;;;;;12.67;2.73;;;4.90;99.90;;;;;;5009743;28;20188;-78
2023/02/01 09:24:08;;;;;;;16.93;2.83;;;4.90;99.90;;;;;;5011367;28;20179;-78
2023/02/01 09:26:33;;;;;;;10.57;3.33;;;4.90;99.90;;;;;;5011230;28;20681;-77
2023/02/01 09:29:00;;;;;;;10.30;3.17;;;4.90;99.90;;;;;;5009064;28;20218;-77
2023/02/01 09:31:25;;;;;;;11.43;2.87;;;5.00;97.40;;;;;;5009091;28;20271;-77
2023/02/01 09:33:51;;;;;;;7.27;2.57;;;5.10;92.80;;;;;;5006781;28;20326;-77
2023/02/01 09:36:19;;;;;;;12.23;2.87;;;5.10;69.60;;;;;;5004960;28;20246;-78
2023/02/01 09:38:45;;;;;;;10.50;2.63;;;5.20;59.90;;;;;;5005849;28;20207;-77
2023/02/01 09:41:25;;;;;;;10.47;3.07;;;5.30;70.20;;;;;;5006001;28;20242;-80
2023/02/01 09:44:25;;;;;;;8.03;2.47;;;5.30;51.30;;;;;;5010621;28;20634;-78
2023/02/01 09:46:56;;;;;;;9.17;2.30;;;5.30;57.20;;;;;;5006309;28;20219;-78
2023/02/01 09:49:30;;;;;;;9.63;2.50;;;5.40;45.00;;;;;;5006026;28;20199;-77
2023/02/01 09:51:57;;;;;;;9.37;2.80;;;5.50;23.20;;;;;;5005704;28;20262;-78
2023/02/01 09:54:25;;;;;;;8.50;2.50;;;5.50;21.60;;;;;;5005400;28;20202;-76
2023/02/01 09:57:06;;;;;;;10.60;3.07;;;5.60;13.70;;;;;;5006101;28;20241;-77
2023/02/01 09:59:42;;;;;;;9.60;2.47;;;5.60;8.20;;;;;;5005572;28;20215;-78
2023/02/01 10:02:24;;;;;;;9.03;2.30;;;5.60;6.60;;;;;;5005821;28;20172;-77
2023/02/01 10:04:50;;;;;;;6.90;2.20;;;5.60;1.00;;;;;;5005258;28;21146;-78
2023/02/01 10:07:37;;;;;;;8.00;2.80;;;5.60;1.00;;;;;;5005340;28;21318;-78
2023/02/01 10:10:14;;;;;;;7.50;2.03;;;5.60;1.00;;;;;;5005684;28;20195;-76
2023/02/01 10:13:10;;;;;;;10.53;2.20;;;5.70;1.00;;;;;;5006299;28;21295;-77
2023/02/01 10:15:54;;;;;;;8.83;2.93;;;5.70;1.00;;;;;;5003398;28;20232;-77
2023/02/01 10:18:38;;;;;;;7.70;2.17;;;5.70;1.00;;;;;;5020724;28;20187;-77
2023/02/01 10:21:12;;;;;;;6.60;2.43;;;5.80;1.00;;;;;;5005407;28;20274;-77
2023/02/01 10:24:03;;;;;;;9.20;2.27;;;5.70;1.00;;;;;;5003349;28;20191;-78
2023/02/01 10:26:36;;;;;;;9.40;3.03;;;5.70;1.00;;;;;;5004608;28;20207;-77
2023/02/01 10:29:04;;;;;;;9.27;2.83;;;6.80;1.00;;;;;;5004988;28;20657;-77
2023/02/01 10:31:37;;;;;;;9.20;2.43;;;5.70;1.00;;;;;;5005037;28;20675;-77
2023/02/01 10:34:29;;;;;;;8.50;2.63;;;5.60;1.00;;;;;;5005547;28;20192;-77
2023/02/01 10:37:23;;;;;;;7.13;2.50;;;5.70;1.00;;;;;;5004612;28;20215;-76
2023/02/01 10:39:52;;;;;;;7.30;3.23;;;5.70;1.00;;;;;;5004516;28;20696;-77
2023/02/01 10:42:20;;;;;;;13.73;3.13;;;5.70;1.00;;;;;;5005544;28;20183;-77
2023/02/01 10:44:47;;;;;;;10.20;2.53;;;5.90;1.00;;;;;;5003052;28;21245;-78
2023/02/01 10:47:15;;;;;;;10.30;2.87;;;6.00;1.00;;;;;;5005224;28;20264;-77
2023/02/01 10:49:52;;;;;;;14.20;3.33;;;6.00;1.00;;;;;;5005027;28;20264;-78
2023/02/01 10:52:34;;;;;;;10.10;2.57;;;6.10;1.00;;;;;;5021160;28;20191;-76
2023/02/01 10:55:35;;;;;;;8.60;2.30;;;6.10;1.00;;;;;;5019299;28;20218;-78
2023/02/01 10:58:04;;;;;;;9.37;3.27;;;6.20;1.00;;;;;;5005768;28;20270;-78
2023/02/01 11:00:56;;;;;;;13.17;2.70;;;6.20;1.00;;;;;;5004492;28;20223;-77
2023/02/01 11:03:32;;;;;;;8.83;2.70;;;6.20;1.00;;;;;;5003727;28;20195;-78
2023/02/01 11:05:58;;;;;;;10.27;2.50;;;6.20;1.00;;;;;;5008657;28;20222;-79
2023/02/01 11:08:23;;;;;;;10.87;2.63;;;6.20;1.00;;;;;;5007603;28;20622;-78
2023/02/01 11:10:59;;;;;;;9.53;3.40;;;6.20;1.00;;;;;;5007115;28;20207;-77
2023/02/01 11:13:30;;;;;;;9.57;2.37;;;6.20;1.00;;;;;;5007009;28;20191;-76
2023/02/01 11:16:02;;;;;;;6.43;2.07;;;6.20;1.00;;;;;;5006154;28;20226;-78
2023/02/01 11:18:31;;;;;;;11.73;2.67;;;6.20;1.00;;;;;;5007154;28;20734;-77
2023/02/01 11:20:58;;;;;;;12.60;2.70;;;6.20;1.00;;;;;;5007874;28;20805;-78
2023/02/01 11:23:27;;;;;;;8.70;2.40;;;6.20;1.00;;;;;;5005465;28;20180;-77
2023/02/01 11:25:56;;;;;;;8.43;2.77;;;6.10;1.00;;;;;;5007340;28;20658;-78
2023/02/01 11:28:30;;;;;;;10.23;2.63;;;6.00;1.00;;;;;;5010097;28;20188;-78
2023/02/01 11:30:59;;;;;;;6.40;2.37;;;6.70;1.00;;;;;;5010262;28;21079;-78
2023/02/01 11:33:30;;;;;;;10.93;2.50;;;6.10;1.00;;;;;;5008936;28;20213;-78
2023/02/01 11:35:58;;;;;;;8.70;2.00;;;6.10;1.00;;;;;;5007203;28;20704;-78
2023/02/01 11:38:32;;;;;;;8.03;2.40;;;6.10;1.00;;;;;;5007305;28;20641;-79
2023/02/01 11:41:25;;;;;;;9.37;2.43;;;6.10;1.00;;;;;;5025699;28;20218;-78
2023/02/01 11:43:56;;;;;;;11.37;2.33;;;6.20;1.00;;;;;;5003169;28;20215;-78
2023/02/01 11:46:27;;;;;;;9.27;2.57;;;6.20;1.00;;;;;;5022804;28;20299;-75
2023/02/01 11:48:55;;;;;;;12.30;2.43;;;6.70;1.00;;;;;;5008856;28;20842;-77
2023/02/01 11:51:49;;;;;;;7.70;2.17;;;6.10;1.00;;;;;;5007246;28;20184;-77
2023/02/01 11:54:37;;;;;;;13.77;3.57;;;6.10;1.00;;;;;;5008792;28;20257;-77
2023/02/01 11:57:29;;;;;;;6.87;2.20;;;6.10;1.00;;;;;;5006050;28;20203;-78
2023/02/01 12:00:05;;;;;;;8.87;2.43;;;6.00;1.00;;;;;;5005862;28;20199;-79
2023/02/01 12:02:49;;;;;;;10.03;2.47;;;6.10;1.00;;;;;;5007395;28;20660;-78
2023/02/01 12:05:24;;;;;;;8.57;2.00;;;6.10;1.00;;;;;;5005363;28;20183;-78
2023/02/01 12:08:06;;;;;;;9.53;2.10;;;6.10;1.00;;;;;;5007371;28;20194;-79
2023/02/01 12:10:38;;;;;;;8.80;2.27;;;6.20;1.00;;;;;;5007616;28;20187;-78
2023/02/01 12:13:22;;;;;;;6.77;2.23;;;6.20;1.00;;;;;;5007280;28;20246;-78
2023/02/01 12:16:06;;;;;;;10.87;2.30;;;6.20;1.00;;;;;;5006506;28;20295;-79
2023/02/01 12:18:52;;;;;;;8.70;2.00;;;6.20;1.00;;;;;;5009328;28;20202;-78
2023/02/01 12:21:24;;;;;;;7.30;1.83;;;6.20;1.00;;;;;;5021301;28;20187;-76
2023/02/01 12:23:59;;;;;;;6.60;1.77;;;6.20;1.00;;;;;;5022529;28;20233;-78
2023/02/01 12:26:50;;;;;;;7.70;2.30;;;6.20;1.00;;;;;;5007295;28;20203;-79
2023/02/01 12:29:47;;;;;;;9.27;2.10;;;6.30;1.00;;;;;;5007499;28;20195;-78
2023/02/01 12:32:15;;;;;;;7.97;1.90;;;6.40;1.00;;;;;;5007054;28;20671;-78
2023/02/01 12:35:15;;;;;;;10.07;2.53;;;6.50;1.00;;;;;;5007023;28;20266;-78
2023/02/01 12:37:45;;;;;;;7.87;2.20;;;6.60;1.00;;;;;;5007405;28;20767;-79
2023/02/01 12:40:32;;;;;;;7.20;2.23;;;6.60;1.00;;;;;;5005676;28;20626;-78
2023/02/01 12:43:01;;;;;;;5.13;1.80;;;6.50;1.00;;;;;;5006160;28;20175;-78
2023/02/01 12:45:35;;;;;;;9.57;2.37;;;6.50;1.00;;;;;;5006642;28;20218;-77
2023/02/01 12:48:21;;;;;;;9.80;2.07;;;6.40;1.00;;;;;;5007798;28;20171;-77
2023/02/01 12:50:55;;;;;;;7.10;2.13;;;6.40;1.00;;;;;;5005760;28;20179;-77
2023/02/01 12:53:30;;;;;;;10.00;2.33;;;6.20;1.00;;;;;;5004660;28;20188;-78
2023/02/01 12:56:01;;;;;;;11.53;2.03;;;6.20;1.00;;;;;;5005396;28;20244;-78
2023/02/01 12:58:40;;;;;;;8.00;2.20;;;6.90;1.00;;;;;;5005916;28;20657;-78
2023/02/01 13:01:11;;;;;;;9.77;2.93;;;6.00;1.00;;;;;;5005841;28;20583;-77
2023/02/01 13:04:11;;;;;;;8.30;2.17;;;6.00;1.00;;;;;;5008833;28;20864;-79
2023/02/01 13:06:41;;;;;;;6.50;2.10;;;6.10;1.00;;;;;;5010331;28;20198;-78
2023/02/01 13:09:27;;;;;;;9.53;2.57;;;6.10;1.00;;;;;;5009567;28;20353;-78
2023/02/01 13:11:58;;;;;;;9.40;2.70;;;6.10;1.00;;;;;;5009119;28;20198;-79
2023/02/01 13:14:35;;;;;;;6.97;2.47;;;6.00;1.00;;;;;;5009516;28;20206;-78
2023/02/01 13:17:20;;;;;;;9.57;2.53;;;5.90;1.00;;;;;;5007843;28;20207;-78
2023/02/01 13:20:06;;;;;;;6.80;2.10;;;5.90;1.00;;;;;;5008679;28;20836;-78
2023/02/01 13:22:41;;;;;;;12.43;2.30;;;5.80;1.00;;;;;;5005786;28;20183;-76
2023/02/01 13:25:16;;;;;;;6.87;2.50;;;5.60;1.00;;;;;;5002493;28;20258;-77
2023/02/01 13:27:41;;;;;;;7.60;2.10;;;5.50;1.00;;;;;;5005920;28;20202;-78
2023/02/01 13:30:19;;;;;;;10.77;2.60;;;5.40;1.00;;;;;;5006648;28;20246;-77
2023/02/01 13:32:55;;;;;;;6.37;2.60;;;5.40;1.00;;;;;;5006969;28;20190;-77
2023/02/01 13:35:36;;;;;;;10.40;2.50;;;5.40;9.60;;;;;;5006456;28;20661;-78
2023/02/01 13:38:28;;;;;;;6.57;2.03;;;5.40;9.40;;;;;;5005855;28;20188;-78
2023/02/01 13:41:00;;;;;;;8.73;2.67;;;5.40;1.00;;;;;;5006780;28;20188;-77
2023/02/01 13:43:28;;;;;;;8.30;2.13;;;5.40;1.00;;;;;;5006124;28;20218;-77
2023/02/01 13:46:05;;;;;;;8.53;2.40;;;5.40;1.80;;;;;;5005783;28;20217;-78